Time;durP1;ratioP1;P1;durP2;ratioP2;P2;SDS_P1;SDS_P2;PMS_P1;PMS_P2;Temp;Humidity;BMP_temperature;BMP_pressure;BME280_temperature;BME280_humidity;BME280_pressure;Samples;Min_cycle;Max_cycle;Signal;HPM_P1;HPM_P2
2023/03/24 00:01:00;;;;;;;8.30;5.30;;;14.00;19.30;;;;;;5111416;28;21175;-72
2023/03/24 00:03:28;;;;;;;7.70;5.30;;;14.00;19.60;;;;;;5106589;28;20675;-72
2023/03/24 00:05:57;;;;;;;9.20;5.53;;;14.00;19.50;;;;;;5105292;28;20901;-72
2023/03/24 00:08:24;;;;;;;8.20;5.07;;;14.00;19.50;;;;;;5107557;28;20992;-72
2023/03/24 00:10:52;;;;;;;7.80;5.07;;;14.00;19.60;;;;;;5109119;28;20451;-72
2023/03/24 00:13:21;;;;;;;9.97;5.70;;;14.00;19.60;;;;;;5108255;28;20460;-72
2023/03/24 00:15:48;;;;;;;12.70;5.83;;;13.90;19.70;;;;;;5101227;28;20475;-72
2023/03/24 00:18:14;;;;;;;9.40;5.47;;;13.90;19.60;;;;;;5101810;28;20463;-72
2023/03/24 00:20:41;;;;;;;8.23;4.90;;;13.90;19.70;;;;;;5101234;28;20934;-72
2023/03/24 00:23:08;;;;;;;8.50;5.07;;;13.90;19.60;;;;;;5106388;28;20528;-73
2023/03/24 00:25:36;;;;;;;7.70;5.27;;;13.90;19.60;;;;;;5109395;28;20475;-72
2023/03/24 00:28:04;;;;;;;9.43;6.60;;;13.90;19.60;;;;;;5105320;28;21031;-72
2023/03/24 00:30:33;;;;;;;10.07;6.10;;;13.90;19.60;;;;;;5107375;28;20462;-72
2023/03/24 00:33:00;;;;;;;9.03;6.27;;;13.90;19.70;;;;;;5099315;28;20901;-72
2023/03/24 00:35:28;;;;;;;9.30;5.70;;;13.80;19.80;;;;;;5102544;28;20497;-72
2023/03/24 00:37:55;;;;;;;13.00;6.53;;;13.80;20.30;;;;;;5100998;28;20471;-72
2023/03/24 00:40:22;;;;;;;14.13;6.00;;;13.80;21.10;;;;;;5106994;28;20579;-72
2023/03/24 00:42:50;;;;;;;8.17;5.87;;;13.80;21.50;;;;;;5104733;28;20509;-72
2023/03/24 00:45:18;;;;;;;8.63;5.70;;;13.80;21.90;;;;;;5106036;28;20452;-72
2023/03/24 00:47:48;;;;;;;9.10;6.23;;;13.80;22.20;;;;;;5104663;28;20475;-72
2023/03/24 00:50:17;;;;;;;9.07;5.43;;;13.70;22.40;;;;;;5102576;28;20467;-72
2023/03/24 00:52:46;;;;;;;9.47;6.53;;;13.70;22.30;;;;;;5101297;28;20459;-72
2023/03/24 00:55:15;;;;;;;7.87;5.30;;;13.70;22.50;;;;;;5102289;28;20451;-73
2023/03/24 00:57:48;;;;;;;9.77;5.17;;;13.70;22.40;;;;;;5097285;28;20475;-73
2023/03/24 01:00:19;;;;;;;7.30;4.83;;;13.70;22.00;;;;;;5098510;28;20464;-73
2023/03/24 01:02:52;;;;;;;8.40;4.20;;;13.80;21.50;;;;;;5096380;28;20543;-73
2023/03/24 01:05:20;;;;;;;11.10;4.43;;;13.80;21.50;;;;;;5098192;28;20823;-73
2023/03/24 01:07:50;;;;;;;7.00;4.90;;;13.70;21.40;;;;;;5093090;28;20910;-73
2023/03/24 01:10:20;;;;;;;7.33;4.60;;;13.80;21.20;;;;;;5096029;28;20696;-73
2023/03/24 01:12:47;;;;;;;6.97;4.43;;;13.80;21.10;;;;;;5090333;28;20460;-73
2023/03/24 01:15:16;;;;;;;7.30;4.17;;;13.80;21.20;;;;;;5097994;28;20459;-73
2023/03/24 01:17:45;;;;;;;7.23;4.37;;;13.80;21.20;;;;;;5090784;28;20473;-73
2023/03/24 01:20:14;;;;;;;8.57;4.97;;;13.80;21.20;;;;;;5100667;28;20480;-72
2023/03/24 01:22:43;;;;;;;9.03;4.93;;;13.80;21.20;;;;;;5098240;28;20464;-73
2023/03/24 01:25:13;;;;;;;8.10;4.77;;;13.80;21.20;;;;;;5094511;28;20463;-73
2023/03/24 01:27:39;;;;;;;7.37;4.70;;;13.80;21.10;;;;;;5098942;28;21103;-73
2023/03/24 01:30:08;;;;;;;9.83;5.00;;;13.80;21.00;;;;;;5098960;28;20466;-73
2023/03/24 01:32:35;;;;;;;9.53;5.90;;;13.80;21.20;;;;;;5102306;27;20464;-70
2023/03/24 01:35:01;;;;;;;11.83;5.43;;;13.80;21.30;;;;;;5106570;28;20456;-70
2023/03/24 01:37:30;;;;;;;7.40;4.83;;;13.80;21.30;;;;;;5106211;28;20455;-70
2023/03/24 01:39:56;;;;;;;8.60;5.30;;;13.80;21.30;;;;;;5106453;28;20822;-70
2023/03/24 01:42:25;;;;;;;9.77;4.60;;;13.80;21.40;;;;;;5100769;28;20552;-70
2023/03/24 01:44:55;;;;;;;7.77;4.77;;;13.80;21.30;;;;;;5105799;28;20992;-70
2023/03/24 01:47:21;;;;;;;7.83;5.20;;;13.80;21.30;;;;;;5105049;28;20848;-70
2023/03/24 01:49:52;;;;;;;9.43;5.17;;;13.80;21.30;;;;;;5106653;28;20465;-70
2023/03/24 01:52:23;;;;;;;9.57;5.40;;;13.70;21.70;;;;;;5098959;28;20452;-70
2023/03/24 01:54:55;;;;;;;9.63;5.83;;;13.60;21.70;;;;;;5102919;28;20534;-70
2023/03/24 01:57:31;;;;;;;7.23;4.90;;;13.70;21.50;;;;;;5100741;28;20772;-70
2023/03/24 02:00:03;;;;;;;8.90;5.70;;;13.70;21.40;;;;;;5087563;28;20456;-70
2023/03/24 02:02:34;;;;;;;8.20;5.00;;;13.70;21.40;;;;;;5099584;28;21016;-70
2023/03/24 02:05:04;;;;;;;8.40;4.80;;;13.70;21.30;;;;;;5099438;28;20575;-70
2023/03/24 02:07:34;;;;;;;9.10;5.20;;;13.70;21.30;;;;;;5106002;28;20474;-70
2023/03/24 02:10:06;;;;;;;6.57;3.93;;;13.70;21.20;;;;;;5105328;28;20451;-70
2023/03/24 02:12:33;;;;;;;9.70;5.37;;;13.70;21.60;;;;;;5102769;28;20901;-70
2023/03/24 02:15:01;;;;;;;9.00;5.60;;;13.60;21.70;;;;;;5099392;28;20453;-70
2023/03/24 02:17:41;;;;;;;7.20;4.50;;;13.60;21.60;;;;;;5092510;28;20724;-70
2023/03/24 02:20:30;;;;;;;7.10;4.33;;;13.60;21.80;;;;;;5099304;28;20443;-70
2023/03/24 02:23:31;;;;;;;10.63;4.70;;;13.60;22.20;;;;;;5103712;28;20860;-70
2023/03/24 02:26:27;;;;;;;7.83;4.97;;;13.60;21.60;;;;;;5067581;28;20494;-70
2023/03/24 02:29:05;;;;;;;8.10;4.90;;;13.60;21.60;;;;;;5097283;28;20793;-70
2023/03/24 02:32:14;;;;;;;7.70;4.73;;;13.60;21.60;;;;;;5103345;28;20463;-71
2023/03/24 02:35:16;;;;;;;6.73;3.87;;;13.60;21.70;;;;;;5023503;28;20834;-70
2023/03/24 02:38:26;;;;;;;8.00;4.90;;;13.60;21.70;;;;;;5030800;28;20464;-70
2023/03/24 02:41:02;;;;;;;9.70;5.90;;;13.60;21.70;;;;;;5091424;28;20483;-70
2023/03/24 02:43:38;;;;;;;10.70;5.90;;;13.60;21.70;;;;;;5109469;28;20442;-70
2023/03/24 02:46:12;;;;;;;7.20;4.70;;;13.60;21.70;;;;;;5103865;28;20474;-70
2023/03/24 02:48:50;;;;;;;8.87;4.67;;;13.60;21.50;;;;;;5109906;28;20436;-70
2023/03/24 02:51:26;;;;;;;8.10;5.13;;;13.60;21.50;;;;;;5108668;28;20823;-70
2023/03/24 02:54:02;;;;;;;11.60;4.90;;;13.60;21.40;;;;;;5109627;28;20462;-70
2023/03/24 02:56:37;;;;;;;7.50;4.77;;;13.60;21.60;;;;;;5107595;28;20479;-70
2023/03/24 02:59:06;;;;;;;7.43;4.83;;;13.60;21.60;;;;;;5113105;28;20993;-70
2023/03/24 03:01:39;;;;;;;11.70;5.07;;;13.60;22.50;;;;;;5112250;28;20965;-70
2023/03/24 03:04:11;;;;;;;8.40;4.90;;;13.60;22.20;;;;;;5112906;28;20914;-70
2023/03/24 03:06:41;;;;;;;7.83;5.07;;;13.50;23.10;;;;;;5108483;28;20490;-70
2023/03/24 03:09:11;;;;;;;7.33;5.20;;;13.50;22.50;;;;;;5109290;28;20486;-70
2023/03/24 03:11:45;;;;;;;8.10;4.93;;;13.50;22.70;;;;;;5109633;28;20475;-71
2023/03/24 03:14:18;;;;;;;9.37;5.37;;;13.50;22.80;;;;;;5108693;28;20444;-70
2023/03/24 03:16:52;;;;;;;8.13;4.73;;;13.50;22.80;;;;;;5103549;28;20540;-70
2023/03/24 03:19:22;;;;;;;8.67;5.30;;;13.60;22.80;;;;;;5109079;28;20459;-70
2023/03/24 03:21:50;;;;;;;6.97;4.57;;;13.60;22.90;;;;;;5109009;28;20456;-70
2023/03/24 03:24:25;;;;;;;9.00;5.30;;;13.60;23.10;;;;;;5109024;28;20455;-70
2023/03/24 03:26:56;;;;;;;9.20;5.70;;;13.50;23.10;;;;;;5109371;28;20482;-70
2023/03/24 03:29:28;;;;;;;9.53;5.77;;;13.50;23.40;;;;;;5101085;28;20447;-70
2023/03/24 03:32:06;;;;;;;8.40;5.63;;;13.50;23.60;;;;;;5108324;28;20474;-70
2023/03/24 03:34:40;;;;;;;8.03;5.23;;;13.50;23.70;;;;;;5098854;28;20448;-70
2023/03/24 03:37:13;;;;;;;8.30;5.00;;;13.50;23.70;;;;;;5100940;28;20475;-70
2023/03/24 03:39:46;;;;;;;10.73;5.97;;;13.50;23.60;;;;;;5109228;28;20800;-71
2023/03/24 03:42:15;;;;;;;9.50;6.20;;;13.40;23.60;;;;;;5108088;28;20492;-70
2023/03/24 03:44:42;;;;;;;8.77;5.63;;;13.40;23.80;;;;;;5103233;28;20863;-70
2023/03/24 03:47:09;;;;;;;9.63;5.07;;;13.40;23.90;;;;;;5106345;28;20977;-70
2023/03/24 03:49:37;;;;;;;7.57;5.00;;;13.40;23.90;;;;;;5109029;28;21152;-70
2023/03/24 03:52:05;;;;;;;10.27;5.47;;;13.40;23.90;;;;;;5106144;28;20941;-70
2023/03/24 03:54:33;;;;;;;10.00;5.47;;;13.40;24.00;;;;;;5107932;28;20825;-70
2023/03/24 03:57:00;;;;;;;11.10;5.70;;;13.40;24.00;;;;;;5108534;28;20511;-70
2023/03/24 03:59:32;;;;;;;8.30;5.40;;;13.40;24.30;;;;;;5103521;28;20456;-70
2023/03/24 04:02:02;;;;;;;10.77;5.67;;;13.40;24.30;;;;;;5100739;28;20475;-70
2023/03/24 04:04:43;;;;;;;8.97;5.13;;;13.40;24.20;;;;;;5108451;28;20447;-70
2023/03/24 04:07:22;;;;;;;8.33;5.30;;;13.40;23.90;;;;;;5101520;28;20483;-70
2023/03/24 04:10:02;;;;;;;7.70;4.90;;;13.40;23.70;;;;;;5107059;28;20448;-70
2023/03/24 04:12:58;;;;;;;6.80;4.30;;;13.40;23.40;;;;;;5103483;28;20451;-70
2023/03/24 04:15:38;;;;;;;7.43;4.70;;;13.40;23.40;;;;;;5105434;28;20475;-70
2023/03/24 04:18:31;;;;;;;6.83;4.43;;;13.40;23.40;;;;;;5105172;28;20832;-70
2023/03/24 04:21:11;;;;;;;9.70;4.70;;;13.40;23.30;;;;;;5092634;28;20623;-70
2023/03/24 04:23:48;;;;;;;8.50;4.30;;;13.40;23.40;;;;;;5099331;28;20448;-70
2023/03/24 04:26:25;;;;;;;8.07;4.70;;;13.40;23.20;;;;;;5107575;28;20471;-70
2023/03/24 04:29:03;;;;;;;7.37;4.00;;;13.50;23.20;;;;;;5106196;28;20467;-70
2023/03/24 04:31:34;;;;;;;6.90;3.60;;;13.50;23.20;;;;;;5107310;28;20475;-70
2023/03/24 04:34:04;;;;;;;6.30;3.50;;;13.50;23.00;;;;;;5099691;28;20447;-70
2023/03/24 04:36:41;;;;;;;5.60;3.00;;;13.60;23.00;;;;;;5107144;28;20520;-70
2023/03/24 04:39:11;;;;;;;7.97;4.00;;;13.60;23.50;;;;;;5097384;28;20447;-70
2023/03/24 04:41:37;;;;;;;7.30;3.77;;;13.70;23.40;;;;;;5105453;28;20448;-70
2023/03/24 04:44:04;;;;;;;6.13;3.40;;;13.70;23.60;;;;;;5104223;28;20538;-70
2023/03/24 04:46:33;;;;;;;7.10;3.90;;;13.70;23.90;;;;;;5101675;28;20467;-70
2023/03/24 04:49:01;;;;;;;6.40;4.03;;;13.80;24.50;;;;;;5097875;28;20572;-70
2023/03/24 04:51:28;;;;;;;6.53;3.67;;;13.80;24.90;;;;;;5100292;28;20474;-70
2023/03/24 04:53:55;;;;;;;6.67;3.80;;;13.80;25.00;;;;;;5092870;28;20460;-70
2023/03/24 04:56:33;;;;;;;7.13;3.60;;;13.80;24.90;;;;;;5099944;28;20632;-70
2023/03/24 04:59:00;;;;;;;7.40;4.10;;;13.80;25.40;;;;;;5096252;28;20838;-71
2023/03/24 05:01:29;;;;;;;6.67;3.50;;;13.70;25.60;;;;;;5104814;27;20857;-70
2023/03/24 05:03:57;;;;;;;6.80;3.60;;;13.70;25.90;;;;;;5101938;28;20448;-71
2023/03/24 05:06:30;;;;;;;6.37;3.70;;;13.70;26.20;;;;;;5108722;28;20861;-71
2023/03/24 05:08:59;;;;;;;9.10;4.07;;;13.60;26.00;;;;;;5106199;28;20468;-71
2023/03/24 05:11:26;;;;;;;6.50;3.87;;;13.70;26.20;;;;;;5094952;28;20452;-71
2023/03/24 05:13:53;;;;;;;6.33;3.70;;;13.70;26.00;;;;;;5095352;28;20451;-71
2023/03/24 05:16:20;;;;;;;7.20;4.07;;;13.70;26.10;;;;;;5103319;28;20494;-71
2023/03/24 05:18:47;;;;;;;6.90;3.73;;;13.70;26.10;;;;;;5105665;28;20447;-71
2023/03/24 05:21:15;;;;;;;11.70;4.10;;;13.70;26.20;;;;;;5092481;28;20565;-71
2023/03/24 05:23:41;;;;;;;6.90;4.07;;;13.70;26.00;;;;;;5097198;28;20454;-71
2023/03/24 05:26:08;;;;;;;6.83;4.40;;;13.70;25.90;;;;;;5102009;28;20503;-71
2023/03/24 05:28:35;;;;;;;6.97;4.10;;;13.70;25.90;;;;;;5106476;28;20815;-71
2023/03/24 05:31:02;;;;;;;7.10;3.97;;;13.70;25.70;;;;;;5103045;27;20512;-71
2023/03/24 05:33:29;;;;;;;6.87;3.87;;;13.70;25.60;;;;;;5107356;28;20451;-70
2023/03/24 05:35:55;;;;;;;9.47;4.50;;;13.70;25.70;;;;;;5105416;28;20467;-71
2023/03/24 05:38:24;;;;;;;7.10;4.00;;;13.60;25.70;;;;;;5101112;28;20460;-71
2023/03/24 05:40:50;;;;;;;8.73;4.63;;;13.60;25.80;;;;;;5085512;28;20544;-71
2023/03/24 05:43:17;;;;;;;6.80;4.13;;;13.60;25.70;;;;;;5105676;28;20855;-71
2023/03/24 05:45:44;;;;;;;7.63;4.03;;;13.60;25.70;;;;;;5105918;28;20479;-71
2023/03/24 05:48:11;;;;;;;8.77;4.30;;;13.70;26.10;;;;;;5106168;28;20479;-71
2023/03/24 05:50:38;;;;;;;9.20;5.10;;;13.60;26.00;;;;;;5105871;28;20715;-72
2023/03/24 05:53:04;;;;;;;10.20;4.83;;;13.60;26.10;;;;;;5106036;28;20822;-72
2023/03/24 05:55:33;;;;;;;8.20;4.40;;;13.60;26.30;;;;;;5105799;28;20471;-71
2023/03/24 05:58:01;;;;;;;7.07;4.23;;;13.60;26.50;;;;;;5103038;28;20464;-71
2023/03/24 06:00:29;;;;;;;8.00;4.80;;;13.60;26.60;;;;;;5105578;28;20455;-71
2023/03/24 06:02:56;;;;;;;7.47;3.63;;;13.60;26.60;;;;;;5101083;28;20449;-71
2023/03/24 06:05:23;;;;;;;6.63;3.70;;;13.70;26.60;;;;;;5097771;28;20474;-71
2023/03/24 06:07:50;;;;;;;9.63;4.47;;;13.70;26.30;;;;;;5106195;28;20478;-72
2023/03/24 06:10:18;;;;;;;6.77;4.13;;;13.70;26.30;;;;;;5099143;28;20452;-71
2023/03/24 06:12:46;;;;;;;7.80;3.90;;;13.70;26.20;;;;;;5094343;28;20517;-71
2023/03/24 06:15:16;;;;;;;7.10;4.30;;;13.70;26.40;;;;;;5102673;28;20978;-71
2023/03/24 06:17:44;;;;;;;7.90;3.90;;;13.70;26.40;;;;;;5106351;28;20479;-71
2023/03/24 06:20:14;;;;;;;7.50;4.60;;;13.80;26.20;;;;;;5105744;28;20452;-71
2023/03/24 06:22:44;;;;;;;7.10;4.03;;;13.80;26.20;;;;;;5105041;28;20459;-71
2023/03/24 06:25:11;;;;;;;7.17;4.03;;;13.80;26.40;;;;;;5105727;28;20455;-71
2023/03/24 06:27:41;;;;;;;7.63;3.80;;;13.80;26.30;;;;;;5106006;28;20451;-71
2023/03/24 06:30:10;;;;;;;9.30;3.97;;;13.80;26.20;;;;;;5105427;28;20455;-71
2023/03/24 06:32:37;;;;;;;6.80;4.20;;;13.90;26.40;;;;;;5104328;28;20483;-72
2023/03/24 06:35:06;;;;;;;8.30;4.20;;;13.90;26.30;;;;;;5106424;28;20925;-72
2023/03/24 06:37:33;;;;;;;6.43;3.63;;;13.90;26.40;;;;;;5099079;28;20463;-72
2023/03/24 06:40:00;;;;;;;7.40;4.10;;;13.90;26.50;;;;;;5099025;28;20540;-72
2023/03/24 06:42:27;;;;;;;6.53;3.70;;;13.90;26.80;;;;;;5105288;28;20459;-71
2023/03/24 06:44:53;;;;;;;6.43;3.20;;;13.90;26.90;;;;;;5105333;28;20451;-71
2023/03/24 06:47:22;;;;;;;5.80;3.40;;;13.90;26.70;;;;;;5104780;28;20475;-71
2023/03/24 06:49:48;;;;;;;7.67;3.60;;;13.90;26.60;;;;;;5103482;28;20479;-72
2023/03/24 06:52:15;;;;;;;6.00;3.60;;;13.90;26.60;;;;;;5103464;28;20467;-71
2023/03/24 06:54:42;;;;;;;7.73;3.63;;;13.90;26.60;;;;;;5103575;28;20457;-72
2023/03/24 06:57:09;;;;;;;6.20;3.27;;;13.90;26.70;;;;;;5102158;28;20479;-71
2023/03/24 06:59:35;;;;;;;6.13;3.67;;;13.90;26.70;;;;;;5100941;28;20451;-71
2023/03/24 07:02:02;;;;;;;6.60;3.20;;;13.90;26.80;;;;;;5100054;28;20463;-72
2023/03/24 07:04:35;;;;;;;6.50;3.17;;;13.90;26.90;;;;;;5097379;28;20456;-72
2023/03/24 07:07:02;;;;;;;9.30;3.60;;;13.90;27.10;;;;;;5102107;28;20475;-72
2023/03/24 07:09:28;;;;;;;8.57;3.43;;;13.90;27.00;;;;;;5104400;28;20479;-72
2023/03/24 07:11:55;;;;;;;7.37;3.73;;;13.90;27.10;;;;;;5101831;28;20462;-72
2023/03/24 07:14:24;;;;;;;6.23;3.60;;;14.00;27.20;;;;;;5104825;28;20459;-72
2023/03/24 07:16:51;;;;;;;6.80;3.60;;;14.00;27.00;;;;;;5097139;28;20477;-71
2023/03/24 07:19:18;;;;;;;11.17;4.27;;;14.00;27.10;;;;;;5105827;28;20435;-71
2023/03/24 07:21:48;;;;;;;7.90;3.90;;;14.10;27.00;;;;;;5104322;28;20460;-71
2023/03/24 07:24:15;;;;;;;6.13;3.60;;;14.20;26.80;;;;;;5094319;28;20550;-71
2023/03/24 07:26:42;;;;;;;7.60;4.00;;;14.20;26.70;;;;;;5097656;28;20859;-74
2023/03/24 07:29:09;;;;;;;9.17;3.90;;;14.30;26.80;;;;;;5099300;28;20475;-74
2023/03/24 07:31:39;;;;;;;8.43;4.40;;;14.40;26.60;;;;;;5099331;28;20550;-74
2023/03/24 07:34:06;;;;;;;6.17;3.50;;;14.40;27.00;;;;;;5093992;28;20461;-74
2023/03/24 07:36:33;;;;;;;7.97;4.20;;;14.40;27.20;;;;;;5099950;28;20479;-74
2023/03/24 07:39:03;;;;;;;7.33;4.00;;;14.40;27.20;;;;;;5095523;28;20455;-77
2023/03/24 07:41:30;;;;;;;8.27;4.17;;;14.40;27.00;;;;;;5089018;28;20470;-74
2023/03/24 07:43:57;;;;;;;8.53;3.80;;;14.40;26.70;;;;;;5091926;28;20803;-71
2023/03/24 07:46:23;;;;;;;8.00;3.70;;;14.40;26.70;;;;;;5107518;28;21016;-71
2023/03/24 07:48:51;;;;;;;9.30;4.13;;;14.50;26.60;;;;;;5105231;28;20479;-69
2023/03/24 07:51:18;;;;;;;10.60;3.80;;;14.50;26.80;;;;;;5102472;28;20549;-71
2023/03/24 07:53:46;;;;;;;10.07;5.30;;;14.50;26.60;;;;;;5104232;28;20482;-72
2023/03/24 07:56:15;;;;;;;8.90;3.90;;;14.60;26.70;;;;;;5095015;28;21028;-72
2023/03/24 07:58:42;;;;;;;6.43;3.33;;;14.60;26.80;;;;;;5102060;28;20486;-72
2023/03/24 08:01:09;;;;;;;9.63;4.07;;;14.70;26.90;;;;;;5098724;28;20471;-72
2023/03/24 08:03:36;;;;;;;8.90;4.73;;;14.70;27.00;;;;;;5100070;28;20467;-72
2023/03/24 08:06:03;;;;;;;8.50;4.60;;;14.80;26.90;;;;;;5099970;28;21179;-72
2023/03/24 08:08:30;;;;;;;8.30;4.00;;;14.90;27.30;;;;;;5106377;27;20563;-72
2023/03/24 08:10:57;;;;;;;7.57;4.27;;;14.90;26.90;;;;;;5096686;28;20467;-72
2023/03/24 08:13:26;;;;;;;6.40;3.70;;;15.00;26.90;;;;;;5104467;28;20665;-71
2023/03/24 08:15:53;;;;;;;8.20;4.23;;;15.10;27.20;;;;;;5101861;27;20476;-71
2023/03/24 08:18:20;;;;;;;7.70;4.87;;;15.10;27.20;;;;;;5092393;28;20480;-71
2023/03/24 08:20:48;;;;;;;8.40;4.00;;;15.20;27.00;;;;;;5103816;28;20456;-72
2023/03/24 08:23:15;;;;;;;7.47;4.20;;;15.20;26.90;;;;;;5102162;28;20962;-71
2023/03/24 08:25:41;;;;;;;7.00;4.03;;;15.20;27.00;;;;;;5101450;27;20574;-71
2023/03/24 08:28:08;;;;;;;6.67;3.50;;;15.20;27.00;;;;;;5095862;28;20921;-71
2023/03/24 08:30:37;;;;;;;6.93;4.33;;;15.30;27.20;;;;;;5094390;28;20466;-72
2023/03/24 08:33:04;;;;;;;9.90;4.40;;;15.30;27.30;;;;;;5103529;27;20459;-72
2023/03/24 08:35:33;;;;;;;6.70;3.93;;;15.30;27.10;;;;;;5102606;28;20483;-71
2023/03/24 08:38:01;;;;;;;8.03;3.97;;;15.20;27.00;;;;;;5094783;28;20463;-72
2023/03/24 08:40:30;;;;;;;6.20;3.87;;;15.20;27.30;;;;;;5103286;27;20452;-72
2023/03/24 08:43:00;;;;;;;7.43;3.87;;;15.20;27.20;;;;;;5100892;27;20615;-71
2023/03/24 08:45:29;;;;;;;7.53;4.20;;;15.10;27.90;;;;;;5101729;27;21036;-72
2023/03/24 08:48:00;;;;;;;8.27;4.07;;;15.00;28.30;;;;;;5103707;28;20463;-71
2023/03/24 08:50:29;;;;;;;7.30;4.10;;;15.00;29.00;;;;;;5102343;28;20547;-71
2023/03/24 08:52:57;;;;;;;7.77;4.10;;;15.00;29.40;;;;;;5105676;28;20451;-71
2023/03/24 08:55:25;;;;;;;6.87;3.60;;;15.00;29.70;;;;;;5102701;28;20951;-71
2023/03/24 08:57:52;;;;;;;8.83;4.70;;;15.00;30.00;;;;;;5102633;28;20859;-71
2023/03/24 09:00:20;;;;;;;8.30;4.83;;;14.90;30.00;;;;;;5106669;28;20876;-71
2023/03/24 09:02:49;;;;;;;7.10;3.90;;;14.90;30.50;;;;;;5102817;28;20451;-71
2023/03/24 09:05:18;;;;;;;7.30;3.70;;;14.90;30.60;;;;;;5097463;28;20463;-71
2023/03/24 09:07:46;;;;;;;9.00;3.80;;;14.90;31.20;;;;;;5106901;27;20451;-71
2023/03/24 09:10:14;;;;;;;6.47;3.30;;;14.80;30.90;;;;;;5099980;28;20468;-71
2023/03/24 09:12:41;;;;;;;5.90;2.90;;;14.70;30.30;;;;;;5094567;28;20448;-71
2023/03/24 09:15:10;;;;;;;6.90;3.50;;;14.70;30.90;;;;;;5094607;28;20548;-71
2023/03/24 09:17:38;;;;;;;6.47;3.80;;;14.80;30.40;;;;;;5102609;28;20470;-71
2023/03/24 09:20:10;;;;;;;8.73;3.40;;;14.90;30.90;;;;;;5102202;28;20459;-71
2023/03/24 09:22:38;;;;;;;8.40;3.20;;;14.90;31.20;;;;;;5104566;27;20462;-70
2023/03/24 09:25:07;;;;;;;5.53;2.77;;;15.00;30.90;;;;;;5102125;28;21160;-71
2023/03/24 09:27:33;;;;;;;7.90;3.10;;;15.00;30.50;;;;;;5106254;28;20443;-71
2023/03/24 09:30:01;;;;;;;7.03;3.30;;;15.00;29.90;;;;;;5101264;28;20481;-71
2023/03/24 09:32:27;;;;;;;10.87;3.10;;;15.00;29.90;;;;;;5105485;27;20967;-71
2023/03/24 09:34:55;;;;;;;6.63;3.27;;;14.90;29.90;;;;;;5094399;28;20456;-71
2023/03/24 09:37:21;;;;;;;6.47;3.17;;;14.90;30.30;;;;;;5115277;27;20864;-71
2023/03/24 09:39:49;;;;;;;6.40;3.47;;;14.90;30.50;;;;;;5104489;28;20459;-71
2023/03/24 09:42:21;;;;;;;6.37;2.90;;;14.90;30.20;;;;;;5093621;28;20459;-71
2023/03/24 09:44:53;;;;;;;7.73;3.30;;;14.90;30.60;;;;;;5096434;28;20551;-71
2023/03/24 09:47:28;;;;;;;6.77;3.43;;;14.90;30.80;;;;;;5097696;28;20475;-71
2023/03/24 09:49:59;;;;;;;5.80;3.27;;;14.90;30.60;;;;;;5089482;28;20477;-71
2023/03/24 09:52:33;;;;;;;10.93;3.77;;;14.90;30.80;;;;;;5098705;28;20807;-70
2023/03/24 09:55:02;;;;;;;8.57;4.03;;;15.00;30.70;;;;;;5101987;28;20461;-70
2023/03/24 09:57:35;;;;;;;7.40;3.53;;;15.00;30.70;;;;;;5095177;28;20475;-71
2023/03/24 10:00:03;;;;;;;6.90;3.23;;;15.00;31.20;;;;;;5099187;27;20933;-71
2023/03/24 10:02:30;;;;;;;7.67;3.63;;;14.90;30.70;;;;;;5092155;28;20473;-70
2023/03/24 10:04:58;;;;;;;6.57;3.23;;;14.80;31.50;;;;;;5100733;28;20463;-71
2023/03/24 10:07:31;;;;;;;8.10;3.67;;;14.80;31.70;;;;;;5098674;28;20815;-70
2023/03/24 10:10:00;;;;;;;6.63;3.50;;;14.80;31.90;;;;;;5105169;27;20978;-71
2023/03/24 10:12:35;;;;;;;8.40;3.67;;;14.80;31.80;;;;;;5092956;28;20520;-70
2023/03/24 10:15:16;;;;;;;8.20;3.53;;;14.80;31.90;;;;;;5104063;28;20977;-71
2023/03/24 10:17:53;;;;;;;8.00;3.43;;;14.80;32.10;;;;;;5103417;28;20448;-70
2023/03/24 10:20:29;;;;;;;6.73;3.10;;;14.90;32.00;;;;;;5115101;27;20442;-71
2023/03/24 10:23:01;;;;;;;5.83;3.47;;;15.20;31.40;;;;;;5102001;28;20957;-71
2023/03/24 10:25:41;;;;;;;6.47;3.23;;;15.50;30.40;;;;;;5101678;28;20528;-71
2023/03/24 10:28:15;;;;;;;7.27;3.40;;;15.70;28.60;;;;;;5116627;27;20459;-71
2023/03/24 10:30:43;;;;;;;5.83;2.60;;;15.80;27.80;;;;;;5097793;28;20845;-71
2023/03/24 10:33:11;;;;;;;5.20;2.50;;;15.80;27.20;;;;;;5111837;28;20535;-71
2023/03/24 10:35:42;;;;;;;6.60;3.17;;;15.80;27.20;;;;;;5102963;28;20475;-71
2023/03/24 10:38:16;;;;;;;5.33;2.80;;;15.90;26.10;;;;;;5103233;28;20444;-71
2023/03/24 10:40:46;;;;;;;5.90;2.87;;;16.10;25.30;;;;;;5101054;28;20511;-71
2023/03/24 10:43:14;;;;;;;5.73;2.77;;;16.20;24.80;;;;;;5093488;28;20791;-71
2023/03/24 10:45:43;;;;;;;5.03;2.40;;;16.40;24.00;;;;;;5100806;28;20479;-71
2023/03/24 10:48:13;;;;;;;5.23;2.43;;;16.90;23.50;;;;;;5107066;28;20454;-71
2023/03/24 10:50:43;;;;;;;5.33;2.37;;;18.20;20.20;;;;;;5101837;28;21100;-71
2023/03/24 10:53:17;;;;;;;6.03;2.37;;;19.40;18.20;;;;;;5096664;28;20459;-71
2023/03/24 10:55:46;;;;;;;4.80;2.03;;;19.90;16.20;;;;;;5096765;28;20504;-71
2023/03/24 10:58:20;;;;;;;5.73;2.17;;;19.70;15.20;;;;;;5097986;28;20697;-71
2023/03/24 11:00:48;;;;;;;5.40;2.20;;;19.30;15.70;;;;;;5100099;28;20874;-72
2023/03/24 11:03:20;;;;;;;4.67;1.87;;;18.80;16.20;;;;;;5104095;28;21013;-71
2023/03/24 11:05:47;;;;;;;5.13;2.33;;;18.60;16.80;;;;;;5106214;28;21196;-71
2023/03/24 11:08:25;;;;;;;4.17;1.60;;;18.40;17.10;;;;;;5104557;28;20458;-71
2023/03/24 11:10:54;;;;;;;4.30;1.70;;;18.20;17.20;;;;;;5106988;27;20470;-71
2023/03/24 11:13:29;;;;;;;4.70;2.13;;;18.10;17.40;;;;;;5106029;27;20983;-71
2023/03/24 11:16:04;;;;;;;4.47;1.93;;;17.90;17.60;;;;;;5102945;27;20467;-71
2023/03/24 11:18:32;;;;;;;5.00;1.80;;;17.80;17.60;;;;;;5094001;28;20535;-71
2023/03/24 11:21:03;;;;;;;5.07;1.90;;;17.60;18.00;;;;;;5097456;28;20458;-71
2023/03/24 11:23:31;;;;;;;5.77;2.40;;;17.30;18.20;;;;;;5098916;28;20455;-71
2023/03/24 11:26:12;;;;;;;4.43;1.90;;;17.20;18.50;;;;;;5109070;27;20822;-71
2023/03/24 11:28:41;;;;;;;5.20;2.10;;;17.10;19.00;;;;;;5109108;27;20447;-71
2023/03/24 11:31:10;;;;;;;5.47;2.07;;;17.00;19.30;;;;;;5102932;28;20574;-71
2023/03/24 11:33:45;;;;;;;5.60;2.37;;;16.90;19.50;;;;;;5111001;28;20486;-71
2023/03/24 11:36:37;;;;;;;7.50;1.70;;;16.80;19.40;;;;;;5106829;28;20482;-71
2023/03/24 11:39:12;;;;;;;4.53;1.67;;;16.60;19.10;;;;;;5085992;28;20463;-71
2023/03/24 11:41:43;;;;;;;4.30;1.50;;;16.50;19.50;;;;;;5105576;28;20447;-71
2023/03/24 11:44:19;;;;;;;3.90;1.70;;;16.40;19.70;;;;;;5099961;28;20509;-71
2023/03/24 11:46:48;;;;;;;8.17;1.77;;;16.30;19.40;;;;;;5104073;28;21056;-71
2023/03/24 11:49:20;;;;;;;4.33;1.43;;;16.20;19.70;;;;;;5105743;28;20859;-71
2023/03/24 11:51:51;;;;;;;7.03;1.90;;;16.20;20.60;;;;;;5099595;28;20491;-71
2023/03/24 11:54:20;;;;;;;4.03;1.13;;;16.30;21.00;;;;;;5104110;28;20954;-71
2023/03/24 11:56:52;;;;;;;4.70;1.20;;;16.40;20.20;;;;;;5104341;28;20926;-71
2023/03/24 11:59:34;;;;;;;4.33;1.57;;;16.50;20.00;;;;;;5106383;28;20504;-71
2023/03/24 12:02:11;;;;;;;4.90;1.50;;;16.50;19.90;;;;;;5097232;28;20666;-71
2023/03/24 12:04:48;;;;;;;4.40;1.40;;;16.60;20.00;;;;;;5104969;28;20459;-71
2023/03/24 12:07:57;;;;;;;6.80;1.50;;;16.60;19.10;;;;;;5100358;28;20493;-71
2023/03/24 12:10:38;;;;;;;5.90;1.13;;;16.50;19.50;;;;;;5081568;28;20483;-71
2023/03/24 12:13:09;;;;;;;3.97;1.03;;;16.30;19.60;;;;;;5096511;28;20466;-71
2023/03/24 12:15:45;;;;;;;4.20;1.30;;;16.10;20.00;;;;;;5102541;28;20780;-71
2023/03/24 12:18:42;;;;;;;6.23;1.40;;;15.90;20.50;;;;;;5102291;28;20459;-71
2023/03/24 12:21:19;;;;;;;4.43;1.30;;;15.90;21.00;;;;;;5100695;28;20447;-71
2023/03/24 12:23:56;;;;;;;3.93;1.10;;;15.80;21.80;;;;;;5095956;28;20492;-71
2023/03/24 12:26:26;;;;;;;4.40;1.13;;;15.70;22.30;;;;;;5095598;28;21024;-72
2023/03/24 12:29:15;;;;;;;5.57;1.20;;;15.70;22.20;;;;;;5096999;28;20982;-72
2023/03/24 12:32:08;;;;;;;4.40;1.40;;;15.70;22.30;;;;;;5099233;28;20838;-71
2023/03/24 12:35:20;;;;;;;4.00;1.03;;;15.70;22.60;;;;;;5099855;28;20470;-71
2023/03/24 12:37:54;;;;;;;4.30;1.23;;;15.60;23.00;;;;;;5061095;28;20452;-71
2023/03/24 12:40:48;;;;;;;3.83;1.07;;;15.80;22.50;;;;;;5099287;28;20633;-70
2023/03/24 12:43:26;;;;;;;4.10;1.23;;;15.90;22.70;;;;;;5094604;28;20456;-71
2023/03/24 12:45:56;;;;;;;4.70;1.20;;;16.10;21.90;;;;;;5101938;28;20476;-71
2023/03/24 12:48:57;;;;;;;3.63;1.10;;;16.10;21.50;;;;;;5094473;28;20501;-71
2023/03/24 12:51:30;;;;;;;3.70;0.80;;;16.10;21.70;;;;;;5100747;28;20544;-70
2023/03/24 12:54:09;;;;;;;3.70;0.90;;;16.00;20.70;;;;;;5104862;27;20451;-70
2023/03/24 12:56:41;;;;;;;3.60;0.80;;;15.90;20.80;;;;;;5099912;27;20494;-72
2023/03/24 12:59:13;;;;;;;3.47;0.73;;;15.80;20.70;;;;;;5098956;27;20832;-72
2023/03/24 13:01:44;;;;;;;3.33;0.70;;;15.70;20.40;;;;;;5098959;27;20516;-72
2023/03/24 13:04:15;;;;;;;3.67;0.80;;;15.70;20.10;;;;;;5103984;28;20458;-71
2023/03/24 13:06:48;;;;;;;3.90;1.30;;;15.60;20.40;;;;;;5099466;28;20486;-71